Time;durP1;ratioP1;P1;durP2;ratioP2;P2;SDS_P1;SDS_P2;PMS_P1;PMS_P2;Temp;Humidity;BMP_temperature;BMP_pressure;BME280_temperature;BME280_humidity;BME280_pressure;Samples;Min_cycle;Max_cycle;Signal;HPM_P1;HPM_P2
2022/03/06 00:00:20;;;;;;;25.15;21.17;;;-0.50;99.90;;;;;;4902699;28;90422;-35
2022/03/06 00:02:45;;;;;;;28.95;22.60;;;-0.50;99.90;;;;;;4903339;28;88697;-31
2022/03/06 00:05:11;;;;;;;24.67;21.25;;;-0.50;99.90;;;;;;4902737;28;94849;-31
2022/03/06 00:07:37;;;;;;;26.17;21.98;;;-0.50;99.90;;;;;;4934928;23;89162;-33
2022/03/06 00:10:04;;;;;;;26.02;21.02;;;-0.60;99.90;;;;;;4902422;28;91158;-32
2022/03/06 00:12:30;;;;;;;25.35;21.33;;;-0.60;99.90;;;;;;4901993;28;88172;-31
2022/03/06 00:14:55;;;;;;;29.50;22.05;;;-0.60;99.90;;;;;;4903535;28;90304;-33
2022/03/06 00:17:21;;;;;;;25.02;20.80;;;-0.60;99.90;;;;;;4902014;28;89964;-34
2022/03/06 00:19:46;;;;;;;28.15;21.70;;;-0.70;99.90;;;;;;4902815;28;88750;-30
2022/03/06 00:22:12;;;;;;;30.35;22.25;;;-0.70;99.90;;;;;;4901934;28;89907;-31
2022/03/06 00:24:37;;;;;;;30.80;24.15;;;-0.70;99.90;;;;;;4901890;28;90195;-32
2022/03/06 00:27:03;;;;;;;30.33;24.58;;;-0.70;99.90;;;;;;4902716;28;90583;-31
2022/03/06 00:29:29;;;;;;;25.90;21.20;;;-0.70;99.90;;;;;;4902143;28;89975;-30
2022/03/06 00:31:55;;;;;;;28.95;22.25;;;-0.70;99.90;;;;;;4902674;28;89947;-33
2022/03/06 00:34:20;;;;;;;29.45;23.13;;;-0.70;99.90;;;;;;4901600;28;88774;-34
2022/03/06 00:36:46;;;;;;;25.50;22.67;;;-0.80;99.90;;;;;;4902573;28;89679;-32
2022/03/06 00:39:11;;;;;;;31.00;21.83;;;-0.80;99.90;;;;;;4902618;28;89891;-32
2022/03/06 00:41:37;;;;;;;31.67;23.42;;;-0.80;99.90;;;;;;4902364;28;88987;-30
2022/03/06 00:44:03;;;;;;;36.17;24.48;;;-0.80;99.90;;;;;;4901845;28;90671;-31
2022/03/06 00:46:29;;;;;;;28.73;23.38;;;-0.70;99.90;;;;;;4901229;28;90750;-31
2022/03/06 00:48:54;;;;;;;31.30;23.52;;;-0.70;99.90;;;;;;4902549;28;90389;-32
2022/03/06 00:51:20;;;;;;;26.85;21.75;;;-0.70;99.90;;;;;;4901684;28;90037;-33
2022/03/06 00:53:45;;;;;;;30.60;23.35;;;-0.70;99.90;;;;;;4902454;28;90283;-33
2022/03/06 00:56:11;;;;;;;22.20;19.67;;;-0.70;99.90;;;;;;4902067;28;88665;-32
2022/03/06 00:58:37;;;;;;;26.02;21.38;;;-0.70;99.90;;;;;;4901163;28;89706;-35
2022/03/06 01:01:04;;;;;;;26.70;22.25;;;-0.70;99.90;;;;;;4901667;28;88421;-32
2022/03/06 01:03:30;;;;;;;29.35;22.15;;;-0.70;99.90;;;;;;4901753;28;91042;-31
2022/03/06 01:05:56;;;;;;;25.58;22.80;;;-0.70;99.90;;;;;;4901799;28;90210;-31
2022/03/06 01:08:21;;;;;;;33.10;22.05;;;-0.70;99.90;;;;;;4901386;28;88609;-30
2022/03/06 01:10:48;;;;;;;24.88;22.05;;;-0.70;99.90;;;;;;4901042;28;89331;-32
2022/03/06 01:13:14;;;;;;;26.42;21.17;;;-0.70;99.90;;;;;;4901715;28;90792;-30
2022/03/06 01:15:40;;;;;;;33.05;23.85;;;-0.70;99.90;;;;;;4901368;28;89866;-31
2022/03/06 01:18:06;;;;;;;25.35;21.92;;;-0.70;99.90;;;;;;4901597;28;90202;-31
2022/03/06 01:20:32;;;;;;;29.10;22.33;;;-0.70;99.90;;;;;;4901785;28;89029;-30
2022/03/06 01:22:58;;;;;;;30.67;23.63;;;-0.70;99.90;;;;;;4900970;28;89807;-31
2022/03/06 01:25:24;;;;;;;24.88;21.75;;;-0.70;99.90;;;;;;4901375;28;89708;-35
2022/03/06 01:27:49;;;;;;;25.88;22.05;;;-0.70;99.90;;;;;;4901215;28;90278;-33
2022/03/06 01:30:15;;;;;;;29.05;20.77;;;-0.70;99.90;;;;;;4901727;28;88150;-35
2022/03/06 01:32:42;;;;;;;25.35;21.10;;;-0.70;99.90;;;;;;4901703;28;89064;-34
2022/03/06 01:35:08;;;;;;;23.33;20.58;;;-0.80;99.90;;;;;;4899996;28;92897;-31
2022/03/06 01:37:34;;;;;;;29.60;23.48;;;-0.80;99.90;;;;;;4901044;28;90044;-31
2022/03/06 01:40:00;;;;;;;27.27;20.70;;;-0.90;99.90;;;;;;4901731;28;87688;-30
2022/03/06 01:42:27;;;;;;;23.30;20.85;;;-0.90;99.90;;;;;;4901146;28;89961;-33
2022/03/06 01:44:52;;;;;;;27.13;20.40;;;-0.90;99.90;;;;;;4901966;28;89701;-31
2022/03/06 01:47:54;;;;;;;28.67;22.10;;;-0.90;99.90;;;;;;4900886;28;89404;-31
2022/03/06 01:50:22;;;;;;;29.02;20.50;;;-0.90;99.90;;;;;;4841285;29;88481;-34
2022/03/06 01:52:50;;;;;;;25.35;21.77;;;-0.90;99.90;;;;;;4889944;28;89967;-29
2022/03/06 01:55:17;;;;;;;30.73;21.90;;;-0.90;99.90;;;;;;4901688;28;90051;-36
2022/03/06 01:57:44;;;;;;;22.80;20.52;;;-0.90;99.90;;;;;;4900587;28;89752;-30
2022/03/06 02:00:17;;;;;;;30.30;23.42;;;-0.90;99.90;;;;;;4901018;28;89904;-31
2022/03/06 02:02:43;;;;;;;24.55;21.88;;;-0.90;99.90;;;;;;4900345;28;90233;-31
2022/03/06 02:05:09;;;;;;;26.60;22.02;;;-0.90;99.90;;;;;;4901222;28;90321;-32
2022/03/06 02:07:35;;;;;;;29.42;23.15;;;-0.90;99.90;;;;;;4900988;28;90139;-31
2022/03/06 02:10:03;;;;;;;27.73;21.17;;;-0.90;99.90;;;;;;4900576;28;89155;-31
2022/03/06 02:12:29;;;;;;;27.52;20.40;;;-0.90;99.90;;;;;;4900353;28;89104;-30
2022/03/06 02:14:59;;;;;;;27.75;21.13;;;-0.90;99.90;;;;;;4901193;28;89705;-30
2022/03/06 02:17:26;;;;;;;32.83;21.58;;;-0.90;99.90;;;;;;4901306;28;89572;-31
2022/03/06 02:19:55;;;;;;;26.70;22.13;;;-0.90;99.90;;;;;;4901358;28;88094;-33
2022/03/06 02:22:23;;;;;;;22.23;19.95;;;-0.90;99.90;;;;;;4900325;28;88913;-31
2022/03/06 02:24:49;;;;;;;;;;;-0.80;99.90;;;;;;4900426;28;90452;-32
2022/03/06 02:27:15;;;;;;;24.55;21.33;;;-0.80;99.90;;;;;;4903252;28;90191;-34
2022/03/06 02:29:42;;;;;;;26.17;21.10;;;-0.90;99.90;;;;;;4901500;28;89727;-32
2022/03/06 02:32:13;;;;;;;22.42;20.05;;;-0.90;99.90;;;;;;4900820;28;91771;-30
2022/03/06 02:34:41;;;;;;;26.33;20.85;;;-0.90;99.90;;;;;;4899760;28;89895;-33
2022/03/06 02:37:07;;;;;;;33.05;20.77;;;-1.00;99.90;;;;;;4900309;28;89633;-34
2022/03/06 02:39:32;;;;;;;23.42;20.08;;;-1.00;99.90;;;;;;4900947;28;88500;-33
2022/03/06 02:41:58;;;;;;;24.33;20.52;;;-1.00;99.90;;;;;;4900339;28;90775;-31
2022/03/06 02:44:25;;;;;;;24.98;19.80;;;-1.00;99.90;;;;;;4900671;28;89766;-31
2022/03/06 02:46:51;;;;;;;28.05;20.90;;;-1.00;99.90;;;;;;4900249;28;90635;-31
2022/03/06 02:49:20;;;;;;;26.65;20.08;;;-1.00;99.90;;;;;;4903315;28;89917;-31
2022/03/06 02:51:46;;;;;;;23.70;20.08;;;-0.90;99.90;;;;;;4903698;28;90383;-30
2022/03/06 02:54:14;;;;;;;25.80;19.55;;;-0.90;99.90;;;;;;4904523;28;89759;-29
2022/03/06 02:56:40;;;;;;;26.30;20.08;;;-1.00;99.90;;;;;;4903567;28;89723;-31
2022/03/06 02:59:07;;;;;;;23.45;17.17;;;-1.00;99.90;;;;;;4903596;28;89543;-31
2022/03/06 03:01:38;;;;;;;22.08;17.95;;;-1.00;99.90;;;;;;4903706;28;90197;-31
2022/03/06 03:04:04;;;;;;;24.98;19.73;;;-1.00;99.90;;;;;;4903665;28;89681;-34
2022/03/06 03:06:30;;;;;;;23.85;19.85;;;-1.00;99.90;;;;;;4903436;28;89731;-31
2022/03/06 03:08:56;;;;;;;20.77;18.63;;;-1.10;99.90;;;;;;4903486;28;89274;-33
2022/03/06 03:11:22;;;;;;;22.10;17.95;;;-1.00;99.90;;;;;;4903956;28;90655;-30
2022/03/06 03:13:48;;;;;;;26.50;21.05;;;-1.00;99.90;;;;;;4903073;28;90524;-34
2022/03/06 03:16:13;;;;;;;24.00;19.20;;;-1.00;99.90;;;;;;4903083;28;90365;-35
2022/03/06 03:18:39;;;;;;;23.27;18.85;;;-1.00;99.90;;;;;;4903214;28;88706;-30
2022/03/06 03:21:04;;;;;;;21.42;17.95;;;-1.00;99.90;;;;;;4903469;28;90478;-30
2022/03/06 03:23:30;;;;;;;23.52;19.00;;;-0.90;99.90;;;;;;4903501;28;89496;-30
2022/03/06 03:25:55;;;;;;;21.73;17.50;;;-0.90;99.90;;;;;;4903176;28;89202;-33
2022/03/06 03:28:21;;;;;;;27.55;18.92;;;-0.90;99.90;;;;;;4903560;28;90183;-32
2022/03/06 03:30:46;;;;;;;20.73;17.55;;;-0.80;99.90;;;;;;4903773;28;90891;-30
2022/03/06 03:33:12;;;;;;;22.90;17.30;;;-0.70;99.90;;;;;;4903589;28;89383;-30
2022/03/06 03:35:38;;;;;;;21.40;16.83;;;-0.70;99.90;;;;;;4903636;28;88379;-29
2022/03/06 03:38:04;;;;;;;20.95;16.33;;;-0.60;99.90;;;;;;4902552;28;89880;-31
2022/03/06 03:40:30;;;;;;;21.45;15.68;;;-0.60;99.90;;;;;;4903477;28;90790;-33
2022/03/06 03:42:55;;;;;;;18.00;16.10;;;-0.60;99.90;;;;;;4900939;28;90023;-35
2022/03/06 03:45:21;;;;;;;17.65;15.77;;;-0.60;99.90;;;;;;4903236;28;89654;-32
2022/03/06 03:47:46;;;;;;;18.50;16.65;;;-0.50;99.90;;;;;;4903401;28;89617;-32
2022/03/06 03:50:12;;;;;;;19.27;16.17;;;-0.50;99.90;;;;;;4902449;28;90512;-32
2022/03/06 03:52:38;;;;;;;17.75;14.93;;;-0.50;99.90;;;;;;4903185;28;89822;-29
2022/03/06 03:55:05;;;;;;;15.82;14.18;;;-0.50;99.90;;;;;;4902706;28;90050;-33
2022/03/06 03:57:30;;;;;;;19.35;16.13;;;-0.50;99.90;;;;;;4902737;28;88142;-31
2022/03/06 03:59:56;;;;;;;20.30;16.98;;;-0.40;99.90;;;;;;4902870;28;90106;-31
2022/03/06 04:02:23;;;;;;;19.27;14.95;;;-0.50;99.90;;;;;;4901837;28;90643;-31
2022/03/06 04:04:49;;;;;;;17.77;15.40;;;-0.40;99.90;;;;;;4902729;28;89130;-33
2022/03/06 04:07:15;;;;;;;26.17;17.35;;;-0.40;99.90;;;;;;4902779;28;89760;-31
2022/03/06 04:09:41;;;;;;;17.45;15.65;;;-0.40;99.90;;;;;;4902778;28;90555;-31
2022/03/06 04:12:07;;;;;;;19.55;15.05;;;-0.40;99.90;;;;;;4903706;28;90664;-33
2022/03/06 04:14:32;;;;;;;17.35;15.13;;;-0.40;99.90;;;;;;4901889;28;89782;-33
2022/03/06 04:16:58;;;;;;;17.95;15.90;;;-0.40;99.90;;;;;;4903023;28;88978;-31
2022/03/06 04:19:24;;;;;;;18.67;14.88;;;-0.40;99.90;;;;;;4902481;28;89580;-31
2022/03/06 04:21:49;;;;;;;18.73;14.98;;;-0.40;99.90;;;;;;4902362;28;93411;-29
2022/03/06 04:24:15;;;;;;;17.58;15.77;;;-0.40;99.90;;;;;;4903069;28;90096;-30
2022/03/06 04:26:40;;;;;;;18.38;16.05;;;-0.40;99.90;;;;;;4901699;28;89298;-29
2022/03/06 04:29:06;;;;;;;18.55;15.80;;;-0.40;99.90;;;;;;4902518;28;90622;-31
2022/03/06 04:31:32;;;;;;;18.55;15.85;;;-0.40;99.90;;;;;;4901875;28;88617;-30
2022/03/06 04:33:58;;;;;;;19.25;16.95;;;-0.50;99.90;;;;;;4902666;28;89419;-30
2022/03/06 04:36:24;;;;;;;16.90;15.20;;;-0.50;99.90;;;;;;4902854;28;87835;-31
2022/03/06 04:38:50;;;;;;;16.13;14.40;;;-0.50;99.90;;;;;;4901823;28;90034;-33
2022/03/06 04:41:16;;;;;;;16.30;14.60;;;-0.60;99.90;;;;;;4902329;28;89727;-36
2022/03/06 04:43:41;;;;;;;18.52;15.27;;;-0.60;99.90;;;;;;4902050;28;89548;-33
2022/03/06 04:46:07;;;;;;;17.60;15.40;;;-0.60;99.90;;;;;;4902809;28;88745;-33
2022/03/06 04:48:32;;;;;;;24.58;15.75;;;-0.60;99.90;;;;;;4901662;28;90092;-31
2022/03/06 04:50:58;;;;;;;19.42;14.90;;;-0.60;99.90;;;;;;4901403;28;90339;-35
2022/03/06 04:53:24;;;;;;;15.25;13.02;;;-0.60;99.90;;;;;;4901130;28;90413;-30
2022/03/06 04:55:49;;;;;;;15.77;13.95;;;-0.70;99.90;;;;;;4902016;28;90220;-29
2022/03/06 04:58:15;;;;;;;15.63;13.88;;;-0.60;99.90;;;;;;4902436;28;91193;-32
2022/03/06 05:00:40;;;;;;;16.55;14.80;;;-0.60;99.90;;;;;;4901956;28;89723;-30
2022/03/06 05:03:06;;;;;;;15.60;14.00;;;-0.60;99.90;;;;;;4901985;28;89874;-32
2022/03/06 05:05:32;;;;;;;17.98;14.98;;;-0.60;99.90;;;;;;4901899;28;90122;-32
2022/03/06 05:07:58;;;;;;;19.92;14.88;;;-0.60;99.90;;;;;;4901399;28;90334;-34
2022/03/06 05:10:24;;;;;;;19.75;14.50;;;-0.60;99.90;;;;;;4900560;28;89555;-31
2022/03/06 05:12:49;;;;;;;16.58;14.00;;;-0.60;99.90;;;;;;4901558;28;90563;-32
2022/03/06 05:15:15;;;;;;;16.33;14.48;;;-0.60;99.90;;;;;;4901830;28;90777;-37
2022/03/06 05:17:42;;;;;;;16.23;14.63;;;-0.70;99.90;;;;;;4901936;28;90316;-31
2022/03/06 05:20:10;;;;;;;16.48;13.65;;;-0.70;99.90;;;;;;4901851;28;90088;-35
2022/03/06 05:22:37;;;;;;;15.38;13.77;;;-0.70;99.90;;;;;;4901549;28;90279;-29
2022/03/06 05:25:03;;;;;;;14.95;13.40;;;-0.70;99.90;;;;;;4902126;28;89130;-30
2022/03/06 05:27:29;;;;;;;16.15;13.63;;;-0.70;99.90;;;;;;4901372;28;91699;-33
2022/03/06 05:29:55;;;;;;;13.77;12.30;;;-0.80;99.90;;;;;;4901717;28;90116;-33
2022/03/06 05:32:21;;;;;;;14.10;12.57;;;-0.70;99.90;;;;;;4901811;28;89407;-30
2022/03/06 05:34:46;;;;;;;13.32;11.90;;;-0.80;99.90;;;;;;4901276;28;88834;-30
2022/03/06 05:37:12;;;;;;;14.13;12.75;;;-0.80;99.90;;;;;;4901580;28;90260;-31
2022/03/06 05:39:38;;;;;;;15.02;13.35;;;-0.80;99.90;;;;;;4900535;28;90616;-31
2022/03/06 05:42:04;;;;;;;19.35;12.82;;;-0.80;99.90;;;;;;4901445;28;90408;-31
2022/03/06 05:44:29;;;;;;;14.02;12.43;;;-0.80;99.90;;;;;;4901157;28;89524;-31
2022/03/06 05:46:55;;;;;;;13.43;11.88;;;-0.80;99.90;;;;;;4901586;28;90395;-35
2022/03/06 05:49:20;;;;;;;13.40;12.02;;;-0.80;99.90;;;;;;4901500;28;88740;-30
2022/03/06 05:51:46;;;;;;;15.18;13.10;;;-0.80;99.90;;;;;;4900927;28;90358;-30
2022/03/06 05:54:12;;;;;;;16.60;12.82;;;-0.80;99.90;;;;;;4901343;28;89783;-31
2022/03/06 05:56:39;;;;;;;13.10;11.75;;;-0.80;99.90;;;;;;4901278;28;90242;-30
2022/03/06 05:59:05;;;;;;;14.20;12.70;;;-0.80;99.90;;;;;;4900283;28;89878;-32
2022/03/06 06:01:31;;;;;;;13.50;12.02;;;-0.70;99.90;;;;;;4901174;28;89240;-33
2022/03/06 06:03:57;;;;;;;14.25;12.77;;;-0.70;99.90;;;;;;4900792;28;89779;-30
2022/03/06 06:06:27;;;;;;;14.50;11.68;;;-0.80;99.90;;;;;;4900782;28;89838;-34
2022/03/06 06:08:54;;;;;;;12.82;11.23;;;-0.80;99.90;;;;;;4900743;28;89768;-30
2022/03/06 06:11:20;;;;;;;11.82;10.70;;;-0.80;99.90;;;;;;4901436;28;89549;-33
2022/03/06 06:13:46;;;;;;;14.52;10.63;;;-0.80;99.90;;;;;;4900281;28;87955;-32
2022/03/06 06:16:11;;;;;;;13.30;9.80;;;-0.80;99.90;;;;;;4901261;28;90096;-33
2022/03/06 06:18:37;;;;;;;12.88;10.55;;;-0.70;99.90;;;;;;4900915;28;89714;-30
2022/03/06 06:21:03;;;;;;;10.98;9.93;;;-0.70;99.90;;;;;;4900741;28;89597;-34
2022/03/06 06:23:29;;;;;;;11.55;10.40;;;-0.70;99.90;;;;;;4901053;28;88333;-32
2022/03/06 06:25:55;;;;;;;11.75;10.48;;;-0.60;99.90;;;;;;4901020;28;90250;-33
2022/03/06 06:28:20;;;;;;;12.63;10.32;;;-0.60;99.90;;;;;;4900026;28;90441;-32
2022/03/06 06:30:46;;;;;;;11.77;10.57;;;-0.60;99.90;;;;;;4900265;28;92530;-32
2022/03/06 06:33:11;;;;;;;15.05;10.90;;;-0.60;99.90;;;;;;4900742;28;88265;-34
2022/03/06 06:35:38;;;;;;;13.95;10.30;;;-0.50;99.90;;;;;;4900956;28;90343;-31
2022/03/06 06:38:04;;;;;;;10.20;9.25;;;-0.50;99.90;;;;;;4900428;28;89712;-32
2022/03/06 06:40:31;;;;;;;11.57;10.15;;;-0.50;99.90;;;;;;4901248;28;89248;-31
2022/03/06 06:42:56;;;;;;;13.38;9.30;;;-0.50;99.90;;;;;;4900813;28;89341;-30
2022/03/06 06:45:22;;;;;;;13.73;10.63;;;-0.40;99.90;;;;;;4899227;28;90061;-32
2022/03/06 06:47:48;;;;;;;12.13;8.60;;;-0.40;99.90;;;;;;4900837;28;90222;-34
2022/03/06 06:50:14;;;;;;;9.50;8.55;;;-0.30;99.90;;;;;;4901044;28;89334;-31
2022/03/06 06:52:39;;;;;;;12.07;9.48;;;-0.30;99.90;;;;;;4901033;28;89545;-32
2022/03/06 06:55:06;;;;;;;12.00;9.18;;;-0.30;99.90;;;;;;4900895;28;90133;-30
2022/03/06 06:57:32;;;;;;;13.63;10.00;;;-0.20;99.90;;;;;;4900482;28;90926;-32
2022/03/06 06:59:58;;;;;;;9.90;8.90;;;-0.20;99.90;;;;;;4900441;28;89729;-33
2022/03/06 07:02:24;;;;;;;9.98;8.60;;;-0.10;99.90;;;;;;4900909;28;89536;-32
2022/03/06 07:04:49;;;;;;;12.65;9.68;;;0.00;99.90;;;;;;4901000;28;90338;-30
2022/03/06 07:07:15;;;;;;;11.13;9.73;;;0.00;99.90;;;;;;4900413;28;91001;-35
2022/03/06 07:09:41;;;;;;;11.55;10.02;;;0.00;99.90;;;;;;4900651;28;89766;-30
2022/03/06 07:12:07;;;;;;;10.60;9.70;;;0.10;99.90;;;;;;4900348;28;88883;-33
2022/03/06 07:14:33;;;;;;;11.00;8.68;;;0.10;99.90;;;;;;4900532;28;90040;-33
2022/03/06 07:16:59;;;;;;;11.35;9.98;;;0.10;99.90;;;;;;4901033;28;90358;-36
2022/03/06 07:19:24;;;;;;;10.18;9.07;;;0.20;99.90;;;;;;4899607;28;90163;-31
2022/03/06 07:21:50;;;;;;;11.50;8.93;;;0.20;99.90;;;;;;4901361;28;89633;-31
2022/03/06 07:24:16;;;;;;;14.43;8.27;;;0.30;99.90;;;;;;4900865;28;90111;-32
2022/03/06 07:26:41;;;;;;;10.27;8.77;;;0.30;99.90;;;;;;4900379;28;88850;-32
2022/03/06 07:29:07;;;;;;;11.30;9.18;;;0.30;99.90;;;;;;4900283;28;89297;-30
2022/03/06 07:31:33;;;;;;;10.25;9.18;;;0.40;99.90;;;;;;4900490;28;88239;-30
2022/03/06 07:33:59;;;;;;;13.10;8.73;;;0.40;99.90;;;;;;4901784;28;90510;-29
2022/03/06 07:36:24;;;;;;;9.35;8.45;;;0.50;99.90;;;;;;4904395;28;89599;-31
2022/03/06 07:38:50;;;;;;;9.45;7.70;;;0.50;99.90;;;;;;4903987;28;90118;-30
2022/03/06 07:41:17;;;;;;;9.98;8.88;;;0.60;99.90;;;;;;4903593;28;87972;-33
2022/03/06 07:43:43;;;;;;;10.13;8.05;;;0.60;99.90;;;;;;4903654;28;90241;-31
2022/03/06 07:46:08;;;;;;;15.88;10.02;;;0.60;99.90;;;;;;4902791;28;89972;-32
2022/03/06 07:48:34;;;;;;;8.60;7.75;;;0.70;99.90;;;;;;4903226;28;89678;-30
2022/03/06 07:51:00;;;;;;;9.52;7.72;;;0.70;99.90;;;;;;4903427;28;89347;-31
2022/03/06 07:53:25;;;;;;;9.13;8.20;;;0.80;99.90;;;;;;4902913;28;90168;-30
2022/03/06 07:55:51;;;;;;;10.77;7.68;;;0.80;99.90;;;;;;4903175;28;93259;-32
2022/03/06 07:58:17;;;;;;;10.35;9.30;;;0.90;99.90;;;;;;4903044;28;89738;-33
2022/03/06 08:00:42;;;;;;;7.43;6.68;;;1.00;99.90;;;;;;4904259;28;87888;-30
2022/03/06 08:03:08;;;;;;;12.70;6.47;;;1.10;99.90;;;;;;4903549;28;90284;-30
2022/03/06 08:05:34;;;;;;;7.85;6.60;;;1.20;99.90;;;;;;4902902;28;90251;-33
2022/03/06 08:07:59;;;;;;;10.35;7.22;;;1.30;99.90;;;;;;4902525;28;90647;-33
2022/03/06 08:10:25;;;;;;;10.45;7.55;;;1.30;99.90;;;;;;4903335;28;88463;-30
2022/03/06 08:12:50;;;;;;;9.63;7.05;;;1.30;99.90;;;;;;4827083;28;90197;-31
2022/03/06 08:15:16;;;;;;;9.07;7.35;;;1.40;99.90;;;;;;4856609;28;89480;-30
2022/03/06 08:17:42;;;;;;;11.00;7.15;;;1.40;99.90;;;;;;4922937;28;89713;-30
2022/03/06 08:20:08;;;;;;;9.75;7.00;;;1.30;99.90;;;;;;4922265;28;89437;-30
2022/03/06 08:22:34;;;;;;;9.57;7.38;;;1.50;99.90;;;;;;4922629;28;91647;-31
2022/03/06 08:25:00;;;;;;;4.90;4.40;;;1.70;99.90;;;;;;4921997;28;91038;-31
2022/03/06 08:27:26;;;;;;;7.78;6.00;;;1.90;99.90;;;;;;4922562;28;90010;-35
2022/03/06 08:29:52;;;;;;;6.72;5.93;;;2.00;99.90;;;;;;4922619;28;88906;-31
2022/03/06 08:32:18;;;;;;;8.38;5.93;;;2.10;99.90;;;;;;4921802;28;90172;-30
2022/03/06 08:34:43;;;;;;;17.02;13.23;;;2.20;99.90;;;;;;4922586;28;90169;-33
2022/03/06 08:37:09;;;;;;;9.80;6.90;;;2.40;99.90;;;;;;4921570;28;89837;-31
2022/03/06 08:39:35;;;;;;;9.18;6.32;;;2.40;99.90;;;;;;4922012;28;88285;-31
2022/03/06 08:42:00;;;;;;;6.00;5.32;;;2.60;99.90;;;;;;4922435;28;90378;-31
2022/03/06 08:44:26;;;;;;;20.33;17.67;;;2.60;99.90;;;;;;4920437;28;89903;-31
2022/03/06 08:46:52;;;;;;;7.13;5.68;;;2.70;99.90;;;;;;4921626;28;89468;-32
2022/03/06 08:49:18;;;;;;;6.20;5.63;;;2.80;99.90;;;;;;4921539;28;87705;-31
2022/03/06 08:51:43;;;;;;;7.85;6.80;;;2.80;99.90;;;;;;4922420;28;90305;-35
2022/03/06 08:54:09;;;;;;;5.63;4.80;;;2.90;99.90;;;;;;4921588;28;90566;-32
2022/03/06 08:56:35;;;;;;;7.65;6.85;;;2.90;99.90;;;;;;4921379;28;89836;-34
2022/03/06 08:59:00;;;;;;;6.68;5.22;;;3.00;99.90;;;;;;4922075;28;89838;-29
2022/03/06 09:01:26;;;;;;;6.97;6.38;;;3.00;99.90;;;;;;4921927;28;88879;-29
2022/03/06 09:03:52;;;;;;;9.25;6.72;;;3.10;99.90;;;;;;4922395;28;90382;-32
2022/03/06 09:06:17;;;;;;;7.47;6.78;;;3.20;99.90;;;;;;4921220;28;89382;-33
2022/03/06 09:08:44;;;;;;;10.43;5.68;;;3.30;99.90;;;;;;4921588;28;88965;-32
2022/03/06 09:11:10;;;;;;;10.13;5.53;;;3.40;99.90;;;;;;4922265;28;90379;-30
2022/03/06 09:13:36;;;;;;;6.00;5.30;;;3.50;99.90;;;;;;4921462;28;89820;-31
2022/03/06 09:16:03;;;;;;;7.80;6.70;;;3.50;99.90;;;;;;4921255;28;89297;-31
2022/03/06 09:18:28;;;;;;;9.63;5.65;;;3.60;99.90;;;;;;4920935;28;88016;-30
2022/03/06 09:20:54;;;;;;;5.68;5.18;;;3.60;99.90;;;;;;4921671;28;90180;-30
2022/03/06 09:23:20;;;;;;;5.88;5.25;;;3.70;99.90;;;;;;4921976;28;89200;-30
2022/03/06 09:25:45;;;;;;;5.90;4.85;;;3.80;99.90;;;;;;4921065;28;89798;-30
2022/03/06 09:28:11;;;;;;;5.47;4.97;;;3.80;99.90;;;;;;4920915;28;88476;-32
2022/03/06 09:30:37;;;;;;;5.38;4.97;;;3.90;99.90;;;;;;4921011;28;90873;-30
2022/03/06 09:33:03;;;;;;;10.10;6.72;;;3.90;99.90;;;;;;4921539;28;89660;-35
2022/03/06 09:35:29;;;;;;;6.53;5.93;;;4.00;99.90;;;;;;4921344;28;94119;-32
2022/03/06 09:37:54;;;;;;;7.78;6.13;;;4.00;99.90;;;;;;4921483;28;87521;-33
2022/03/06 09:40:20;;;;;;;12.18;5.97;;;4.10;99.90;;;;;;4917913;28;90418;-31
2022/03/06 09:42:46;;;;;;;6.03;5.43;;;4.20;99.90;;;;;;4917716;28;91021;-32
2022/03/06 09:45:13;;;;;;;4.72;4.30;;;4.20;99.90;;;;;;4918633;28;90576;-33
2022/03/06 09:47:40;;;;;;;7.05;6.35;;;4.30;99.90;;;;;;4919068;28;88885;-31
2022/03/06 09:50:08;;;;;;;7.55;6.10;;;4.20;93.00;;;;;;4918734;28;90267;-32
2022/03/06 09:52:33;;;;;;;6.60;6.00;;;4.30;95.20;;;;;;4918041;28;90375;-33
2022/03/06 09:54:59;;;;;;;7.53;5.30;;;4.30;94.40;;;;;;4918735;28;89413;-31
2022/03/06 09:57:25;;;;;;;7.10;5.70;;;4.30;96.60;;;;;;4918727;28;90450;-30
2022/03/06 09:59:51;;;;;;;5.47;4.97;;;4.40;99.00;;;;;;4918849;28;90174;-34
2022/03/06 10:02:16;;;;;;;9.10;6.40;;;4.50;92.80;;;;;;4918498;28;90005;-31
2022/03/06 10:04:43;;;;;;;11.88;7.57;;;4.50;87.60;;;;;;4918120;28;90218;-31
2022/03/06 10:07:14;;;;;;;8.40;6.45;;;4.60;88.50;;;;;;4918437;28;90201;-31
2022/03/06 10:09:43;;;;;;;5.57;4.97;;;4.60;98.50;;;;;;4918768;28;91081;-34
2022/03/06 10:12:24;;;;;;;8.73;5.68;;;4.70;85.70;;;;;;4918497;28;89018;-30
2022/03/06 10:14:52;;;;;;;5.22;4.78;;;4.80;84.60;;;;;;4918722;28;90990;-30
2022/03/06 10:17:20;;;;;;;6.50;5.78;;;4.80;80.90;;;;;;4918202;28;88329;-31
2022/03/06 10:19:54;;;;;;;6.45;5.82;;;4.90;90.10;;;;;;4918883;28;90309;-31
2022/03/06 10:22:22;;;;;;;7.93;7.13;;;4.80;85.20;;;;;;4916962;28;89693;-32
2022/03/06 10:24:59;;;;;;;10.40;8.60;;;4.80;92.30;;;;;;4918821;28;90064;-30
2022/03/06 10:27:47;;;;;;;6.43;5.68;;;5.00;86.10;;;;;;4918752;28;89213;-31
2022/03/06 10:30:31;;;;;;;5.07;4.67;;;5.00;77.60;;;;;;4918836;28;90258;-33
2022/03/06 10:32:59;;;;;;;5.30;4.80;;;5.00;80.70;;;;;;4917843;28;92530;-34
2022/03/06 10:35:30;;;;;;;;;;;5.10;76.40;;;;;;4918050;28;90136;-30
2022/03/06 10:37:55;;;;;;;7.50;5.28;;;5.10;76.50;;;;;;4919900;28;88425;-35
2022/03/06 10:40:32;;;;;;;5.70;5.20;;;5.20;79.10;;;;;;4917809;28;88990;-33
2022/03/06 10:42:58;;;;;;;4.90;4.40;;;5.20;80.80;;;;;;4918297;28;90774;-31
2022/03/06 10:45:24;;;;;;;5.35;4.85;;;5.30;75.50;;;;;;4917873;28;89744;-34
2022/03/06 10:47:49;;;;;;;7.30;4.40;;;5.30;75.10;;;;;;4918956;28;88317;-36
2022/03/06 10:50:22;;;;;;;6.75;5.70;;;5.40;77.20;;;;;;4918543;28;89162;-34
2022/03/06 10:52:48;;;;;;;5.40;5.00;;;5.40;75.80;;;;;;4918351;28;90055;-34
2022/03/06 10:55:13;;;;;;;5.97;5.38;;;5.40;72.30;;;;;;4918049;28;89642;-33
2022/03/06 10:57:40;;;;;;;5.32;4.47;;;5.40;73.90;;;;;;4917680;28;90050;-32
2022/03/06 11:00:06;;;;;;;4.43;4.10;;;5.50;73.50;;;;;;4918369;28;88598;-30
2022/03/06 11:02:35;;;;;;;4.35;3.95;;;5.40;73.70;;;;;;4917464;28;90719;-33
2022/03/06 11:05:02;;;;;;;6.40;5.65;;;5.40;73.80;;;;;;4917640;28;89941;-32
2022/03/06 11:07:29;;;;;;;6.50;5.28;;;5.30;74.70;;;;;;4917635;28;89459;-38
2022/03/06 11:09:57;;;;;;;5.03;4.25;;;5.50;77.60;;;;;;4920824;28;90627;-34
2022/03/06 11:12:24;;;;;;;7.50;5.80;;;5.60;72.90;;;;;;4921048;28;89386;-35
2022/03/06 11:14:49;;;;;;;11.07;5.10;;;5.70;75.60;;;;;;4921104;28;89928;-32
2022/03/06 11:17:16;;;;;;;4.95;4.00;;;5.70;73.40;;;;;;4921313;28;90358;-38
2022/03/06 11:19:42;;;;;;;7.03;5.43;;;5.70;75.10;;;;;;4921733;28;89620;-31
2022/03/06 11:22:19;;;;;;;6.00;5.38;;;5.70;71.90;;;;;;4920096;28;91334;-33
2022/03/06 11:24:57;;;;;;;4.87;4.43;;;5.70;71.50;;;;;;4921211;28;90554;-32
2022/03/06 11:27:54;;;;;;;5.28;4.78;;;5.70;72.90;;;;;;4921949;28;89181;-32
2022/03/06 11:30:20;;;;;;;6.50;5.75;;;5.70;75.00;;;;;;4921644;28;90257;-33
2022/03/06 11:33:07;;;;;;;6.53;5.18;;;5.80;73.40;;;;;;4920878;28;91022;-31
2022/03/06 11:35:43;;;;;;;5.80;5.15;;;5.80;73.30;;;;;;4920147;28;89334;-31
2022/03/06 11:38:12;;;;;;;6.32;5.50;;;6.00;76.90;;;;;;4921706;28;90510;-31
2022/03/06 11:40:38;;;;;;;;;;;6.10;73.20;;;;;;4920230;28;90618;-31
2022/03/06 11:43:05;;;;;;;4.80;4.40;;;6.10;71.60;;;;;;4922166;28;89432;-34
2022/03/06 11:45:52;;;;;;;5.50;5.00;;;6.10;71.70;;;;;;4920328;28;89989;-36
2022/03/06 11:48:47;;;;;;;4.72;4.32;;;6.20;72.20;;;;;;4920228;28;90050;-36
2022/03/06 11:51:18;;;;;;;10.32;5.03;;;6.20;70.90;;;;;;4903748;28;89527;-32
2022/03/06 11:54:14;;;;;;;10.00;5.70;;;6.20;73.00;;;;;;4921211;28;90246;-34
2022/03/06 11:56:45;;;;;;;6.13;4.85;;;6.20;72.10;;;;;;4921089;28;90756;-32
2022/03/06 11:59:16;;;;;;;6.93;5.00;;;6.30;75.60;;;;;;4921054;28;88053;-32
2022/03/06 12:01:54;;;;;;;6.90;5.47;;;6.30;73.70;;;;;;4920368;28;89151;-35
2022/03/06 12:04:29;;;;;;;11.07;8.57;;;6.20;72.60;;;;;;4920969;28;90261;-36
2022/03/06 12:06:58;;;;;;;5.68;5.18;;;6.20;73.40;;;;;;4954915;23;89786;-35
2022/03/06 12:09:29;;;;;;;5.47;4.95;;;6.30;72.60;;;;;;4918687;28;89919;-35
2022/03/06 12:12:01;;;;;;;6.63;5.88;;;6.30;73.30;;;;;;4920509;28;90345;-32
2022/03/06 12:14:37;;;;;;;6.57;5.68;;;6.40;73.40;;;;;;4919902;28;90811;-32
2022/03/06 12:17:03;;;;;;;6.07;5.60;;;6.30;71.80;;;;;;4921032;28;90482;-34
2022/03/06 12:19:32;;;;;;;9.93;5.50;;;6.30;72.60;;;;;;4919281;28;89711;-36
2022/03/06 12:22:12;;;;;;;4.93;4.47;;;6.40;72.90;;;;;;4919896;28;90237;-32
2022/03/06 12:24:38;;;;;;;4.82;4.15;;;6.40;74.00;;;;;;4919511;28;89244;-37
2022/03/06 12:27:12;;;;;;;5.88;5.22;;;6.40;74.20;;;;;;4920255;28;89976;-34
2022/03/06 12:29:46;;;;;;;7.15;6.45;;;6.40;73.30;;;;;;4920103;28;88449;-32
2022/03/06 12:32:27;;;;;;;8.45;5.65;;;6.20;72.60;;;;;;4920488;28;91147;-35
2022/03/06 12:35:06;;;;;;;13.38;5.25;;;6.30;73.90;;;;;;4920154;28;90375;-32
2022/03/06 12:37:50;;;;;;;6.72;5.15;;;6.30;74.90;;;;;;4920028;28;90566;-34
2022/03/06 12:40:18;;;;;;;5.70;5.20;;;6.40;74.10;;;;;;4919278;28;90098;-35